sensor_id;sensor_type;location;lat;lon;timestamp;P1;durP1;ratioP1;P2;durP2;ratioP2
32824;SDS011;51060;42.640;24.356;2023-02-12T00:02:16;30.10;;;17.70;;
32824;SDS011;51060;42.640;24.356;2023-02-12T00:04:42;27.50;;;16.97;;
32824;SDS011;51060;42.640;24.356;2023-02-12T00:07:08;21.77;;;13.90;;
32824;SDS011;51060;42.640;24.356;2023-02-12T00:09:35;29.27;;;18.57;;
32824;SDS011;51060;42.640;24.356;2023-02-12T00:12:01;24.83;;;16.87;;
32824;SDS011;51060;42.640;24.356;2023-02-12T00:14:26;22.47;;;15.20;;
32824;SDS011;51060;42.640;24.356;2023-02-12T00:16:52;22.27;;;14.57;;
32824;SDS011;51060;42.640;24.356;2023-02-12T00:19:17;24.33;;;15.43;;
32824;SDS011;51060;42.640;24.356;2023-02-12T00:21:43;25.67;;;16.30;;
32824;SDS011;51060;42.640;24.356;2023-02-12T00:24:09;22.17;;;14.40;;
32824;SDS011;51060;42.640;24.356;2023-02-12T00:26:34;23.33;;;14.97;;
32824;SDS011;51060;42.640;24.356;2023-02-12T00:29:00;24.20;;;14.23;;
32824;SDS011;51060;42.640;24.356;2023-02-12T00:31:27;43.07;;;22.77;;
32824;SDS011;51060;42.640;24.356;2023-02-12T00:33:54;22.80;;;14.00;;
32824;SDS011;51060;42.640;24.356;2023-02-12T00:36:21;36.17;;;19.33;;
32824;SDS011;51060;42.640;24.356;2023-02-12T00:38:49;31.50;;;18.80;;
32824;SDS011;51060;42.640;24.356;2023-02-12T00:41:16;20.77;;;12.80;;
32824;SDS011;51060;42.640;24.356;2023-02-12T00:43:41;19.87;;;13.47;;
32824;SDS011;51060;42.640;24.356;2023-02-12T00:46:07;20.90;;;12.90;;
32824;SDS011;51060;42.640;24.356;2023-02-12T00:48:33;23.43;;;14.17;;
32824;SDS011;51060;42.640;24.356;2023-02-12T00:50:59;20.83;;;13.93;;
32824;SDS011;51060;42.640;24.356;2023-02-12T00:53:25;20.60;;;13.83;;
32824;SDS011;51060;42.640;24.356;2023-02-12T00:55:50;36.30;;;21.70;;
32824;SDS011;51060;42.640;24.356;2023-02-12T00:58:16;26.80;;;16.30;;
32824;SDS011;51060;42.640;24.356;2023-02-12T01:00:42;27.33;;;16.23;;
32824;SDS011;51060;42.640;24.356;2023-02-12T01:03:08;22.47;;;14.53;;
32824;SDS011;51060;42.640;24.356;2023-02-12T01:05:34;21.10;;;13.37;;
32824;SDS011;51060;42.640;24.356;2023-02-12T01:08:01;16.20;;;12.03;;
32824;SDS011;51060;42.640;24.356;2023-02-12T01:10:27;19.47;;;12.37;;
32824;SDS011;51060;42.640;24.356;2023-02-12T01:12:53;23.50;;;13.70;;
32824;SDS011;51060;42.640;24.356;2023-02-12T01:15:19;25.13;;;13.97;;
32824;SDS011;51060;42.640;24.356;2023-02-12T01:17:45;20.67;;;12.80;;
32824;SDS011;51060;42.640;24.356;2023-02-12T01:20:12;33.47;;;18.37;;
32824;SDS011;51060;42.640;24.356;2023-02-12T01:22:41;28.87;;;15.53;;
32824;SDS011;51060;42.640;24.356;2023-02-12T01:25:07;23.30;;;14.20;;
32824;SDS011;51060;42.640;24.356;2023-02-12T01:27:33;24.00;;;13.67;;
32824;SDS011;51060;42.640;24.356;2023-02-12T01:29:58;25.50;;;14.80;;
32824;SDS011;51060;42.640;24.356;2023-02-12T01:32:24;52.67;;;29.50;;
32824;SDS011;51060;42.640;24.356;2023-02-12T01:34:49;27.43;;;16.33;;
32824;SDS011;51060;42.640;24.356;2023-02-12T01:37:15;16.83;;;11.13;;
32824;SDS011;51060;42.640;24.356;2023-02-12T01:39:41;18.50;;;11.73;;
32824;SDS011;51060;42.640;24.356;2023-02-12T01:42:09;13.63;;;9.13;;
32824;SDS011;51060;42.640;24.356;2023-02-12T01:44:38;13.97;;;9.80;;
32824;SDS011;51060;42.640;24.356;2023-02-12T01:47:15;11.60;;;8.20;;
32824;SDS011;51060;42.640;24.356;2023-02-12T01:49:43;12.33;;;9.33;;
32824;SDS011;51060;42.640;24.356;2023-02-12T01:54:46;10.87;;;7.43;;
32824;SDS011;51060;42.640;24.356;2023-02-12T01:57:13;10.70;;;6.87;;
32824;SDS011;51060;42.640;24.356;2023-02-12T01:59:39;9.23;;;6.60;;
32824;SDS011;51060;42.640;24.356;2023-02-12T02:02:07;9.97;;;6.30;;
32824;SDS011;51060;42.640;24.356;2023-02-12T02:04:37;10.17;;;6.50;;
32824;SDS011;51060;42.640;24.356;2023-02-12T02:07:05;8.43;;;5.13;;
32824;SDS011;51060;42.640;24.356;2023-02-12T02:09:34;10.63;;;6.10;;
32824;SDS011;51060;42.640;24.356;2023-02-12T02:12:00;10.10;;;7.07;;
32824;SDS011;51060;42.640;24.356;2023-02-12T02:14:45;12.47;;;7.00;;
32824;SDS011;51060;42.640;24.356;2023-02-12T02:22:40;11.30;;;7.77;;
32824;SDS011;51060;42.640;24.356;2023-02-12T02:34:07;10.97;;;7.57;;
32824;SDS011;51060;42.640;24.356;2023-02-12T02:36:59;11.30;;;7.63;;
32824;SDS011;51060;42.640;24.356;2023-02-12T02:39:37;12.90;;;8.27;;
32824;SDS011;51060;42.640;24.356;2023-02-12T02:45:03;13.37;;;8.90;;
32824;SDS011;51060;42.640;24.356;2023-02-12T02:47:42;16.20;;;9.40;;
32824;SDS011;51060;42.640;24.356;2023-02-12T02:50:16;13.53;;;8.50;;
32824;SDS011;51060;42.640;24.356;2023-02-12T02:52:48;14.63;;;8.53;;
32824;SDS011;51060;42.640;24.356;2023-02-12T02:55:22;16.83;;;10.03;;
32824;SDS011;51060;42.640;24.356;2023-02-12T02:57:51;16.53;;;8.20;;
32824;SDS011;51060;42.640;24.356;2023-02-12T03:00:21;15.40;;;8.50;;
32824;SDS011;51060;42.640;24.356;2023-02-12T03:02:52;21.83;;;14.93;;
32824;SDS011;51060;42.640;24.356;2023-02-12T03:05:25;18.60;;;11.87;;
32824;SDS011;51060;42.640;24.356;2023-02-12T03:08:19;14.33;;;8.07;;
32824;SDS011;51060;42.640;24.356;2023-02-12T03:10:58;16.73;;;10.43;;
32824;SDS011;51060;42.640;24.356;2023-02-12T03:13:32;14.60;;;9.23;;
32824;SDS011;51060;42.640;24.356;2023-02-12T03:16:03;14.03;;;8.40;;
32824;SDS011;51060;42.640;24.356;2023-02-12T03:18:58;16.90;;;10.60;;
32824;SDS011;51060;42.640;24.356;2023-02-12T03:21:30;16.43;;;9.50;;
32824;SDS011;51060;42.640;24.356;2023-02-12T03:24:22;14.73;;;8.37;;
32824;SDS011;51060;42.640;24.356;2023-02-12T03:26:55;14.63;;;7.93;;
32824;SDS011;51060;42.640;24.356;2023-02-12T03:29:28;14.63;;;8.23;;
32824;SDS011;51060;42.640;24.356;2023-02-12T03:37:46;13.80;;;8.80;;
32824;SDS011;51060;42.640;24.356;2023-02-12T03:43:07;13.67;;;8.80;;
32824;SDS011;51060;42.640;24.356;2023-02-12T03:45:58;15.33;;;8.90;;
32824;SDS011;51060;42.640;24.356;2023-02-12T03:51:56;15.70;;;8.33;;
32824;SDS011;51060;42.640;24.356;2023-02-12T03:54:22;13.23;;;8.20;;
32824;SDS011;51060;42.640;24.356;2023-02-12T03:59:28;15.43;;;9.33;;
32824;SDS011;51060;42.640;24.356;2023-02-12T04:01:54;13.67;;;8.67;;
32824;SDS011;51060;42.640;24.356;2023-02-12T04:04:22;14.60;;;8.40;;
32824;SDS011;51060;42.640;24.356;2023-02-12T04:06:49;14.23;;;8.43;;
32824;SDS011;51060;42.640;24.356;2023-02-12T04:09:15;15.30;;;8.60;;
32824;SDS011;51060;42.640;24.356;2023-02-12T04:33:23;18.03;;;9.70;;
32824;SDS011;51060;42.640;24.356;2023-02-12T04:35:51;19.80;;;11.27;;
32824;SDS011;51060;42.640;24.356;2023-02-12T04:38:24;24.13;;;14.57;;
32824;SDS011;51060;42.640;24.356;2023-02-12T04:40:55;30.90;;;18.50;;
32824;SDS011;51060;42.640;24.356;2023-02-12T04:43:31;28.43;;;16.90;;
32824;SDS011;51060;42.640;24.356;2023-02-12T04:46:01;31.57;;;17.67;;
32824;SDS011;51060;42.640;24.356;2023-02-12T04:48:27;27.10;;;15.43;;
32824;SDS011;51060;42.640;24.356;2023-02-12T04:50:53;50.90;;;25.33;;
32824;SDS011;51060;42.640;24.356;2023-02-12T04:53:19;68.67;;;35.13;;
32824;SDS011;51060;42.640;24.356;2023-02-12T04:55:44;67.47;;;39.30;;
32824;SDS011;51060;42.640;24.356;2023-02-12T04:58:12;30.17;;;17.10;;
32824;SDS011;51060;42.640;24.356;2023-02-12T05:00:37;23.67;;;14.93;;
32824;SDS011;51060;42.640;24.356;2023-02-12T05:03:03;45.33;;;25.40;;
32824;SDS011;51060;42.640;24.356;2023-02-12T05:05:29;28.47;;;16.83;;
32824;SDS011;51060;42.640;24.356;2023-02-12T05:07:55;24.53;;;13.70;;
32824;SDS011;51060;42.640;24.356;2023-02-12T05:10:20;21.03;;;12.50;;
32824;SDS011;51060;42.640;24.356;2023-02-12T05:12:46;49.63;;;27.00;;
32824;SDS011;51060;42.640;24.356;2023-02-12T05:15:12;39.17;;;22.83;;
32824;SDS011;51060;42.640;24.356;2023-02-12T05:17:37;34.63;;;20.53;;
32824;SDS011;51060;42.640;24.356;2023-02-12T05:20:03;27.17;;;16.43;;
32824;SDS011;51060;42.640;24.356;2023-02-12T05:22:29;28.10;;;16.90;;
32824;SDS011;51060;42.640;24.356;2023-02-12T05:24:55;23.33;;;14.33;;
32824;SDS011;51060;42.640;24.356;2023-02-12T05:27:21;24.37;;;15.37;;
32824;SDS011;51060;42.640;24.356;2023-02-12T05:29:46;26.70;;;14.67;;
32824;SDS011;51060;42.640;24.356;2023-02-12T05:32:12;28.10;;;14.83;;
32824;SDS011;51060;42.640;24.356;2023-02-12T05:34:37;28.77;;;17.27;;
32824;SDS011;51060;42.640;24.356;2023-02-12T05:37:03;30.73;;;17.97;;
32824;SDS011;51060;42.640;24.356;2023-02-12T05:39:29;18.87;;;11.17;;
32824;SDS011;51060;42.640;24.356;2023-02-12T05:41:54;24.57;;;14.00;;
32824;SDS011;51060;42.640;24.356;2023-02-12T05:44:20;21.50;;;11.50;;
32824;SDS011;51060;42.640;24.356;2023-02-12T05:46:45;14.27;;;9.23;;
32824;SDS011;51060;42.640;24.356;2023-02-12T05:49:11;38.17;;;24.80;;
32824;SDS011;51060;42.640;24.356;2023-02-12T05:51:37;36.83;;;20.03;;
32824;SDS011;51060;42.640;24.356;2023-02-12T05:54:03;33.03;;;25.93;;
32824;SDS011;51060;42.640;24.356;2023-02-12T05:56:31;22.20;;;13.53;;
32824;SDS011;51060;42.640;24.356;2023-02-12T05:59:02;22.10;;;13.87;;
32824;SDS011;51060;42.640;24.356;2023-02-12T06:01:30;28.87;;;17.90;;
32824;SDS011;51060;42.640;24.356;2023-02-12T06:04:02;22.37;;;12.33;;
32824;SDS011;51060;42.640;24.356;2023-02-12T06:06:28;39.37;;;23.67;;
32824;SDS011;51060;42.640;24.356;2023-02-12T06:08:55;29.10;;;17.53;;
32824;SDS011;51060;42.640;24.356;2023-02-12T06:11:21;14.20;;;8.77;;
32824;SDS011;51060;42.640;24.356;2023-02-12T06:13:47;18.47;;;11.37;;
32824;SDS011;51060;42.640;24.356;2023-02-12T06:16:25;18.30;;;10.97;;
32824;SDS011;51060;42.640;24.356;2023-02-12T06:18:52;17.73;;;10.43;;
32824;SDS011;51060;42.640;24.356;2023-02-12T06:21:20;16.47;;;9.40;;
32824;SDS011;51060;42.640;24.356;2023-02-12T06:23:47;15.40;;;9.30;;
32824;SDS011;51060;42.640;24.356;2023-02-12T06:26:13;15.50;;;9.60;;
32824;SDS011;51060;42.640;24.356;2023-02-12T06:28:39;15.30;;;9.13;;
32824;SDS011;51060;42.640;24.356;2023-02-12T06:31:14;18.57;;;12.47;;
32824;SDS011;51060;42.640;24.356;2023-02-12T06:33:42;18.07;;;11.20;;
32824;SDS011;51060;42.640;24.356;2023-02-12T06:36:08;19.90;;;12.83;;
32824;SDS011;51060;42.640;24.356;2023-02-12T06:38:34;18.20;;;12.50;;
32824;SDS011;51060;42.640;24.356;2023-02-12T06:41:00;18.10;;;11.10;;
32824;SDS011;51060;42.640;24.356;2023-02-12T06:43:27;18.10;;;11.77;;
32824;SDS011;51060;42.640;24.356;2023-02-12T06:45:52;20.83;;;14.73;;
32824;SDS011;51060;42.640;24.356;2023-02-12T06:48:18;23.83;;;16.07;;
32824;SDS011;51060;42.640;24.356;2023-02-12T06:50:43;17.80;;;12.40;;
32824;SDS011;51060;42.640;24.356;2023-02-12T06:53:09;19.03;;;11.57;;
32824;SDS011;51060;42.640;24.356;2023-02-12T06:55:35;23.83;;;14.60;;
32824;SDS011;51060;42.640;24.356;2023-02-12T06:58:00;13.63;;;8.60;;
32824;SDS011;51060;42.640;24.356;2023-02-12T07:00:26;28.23;;;17.23;;
32824;SDS011;51060;42.640;24.356;2023-02-12T07:02:52;20.20;;;12.00;;
32824;SDS011;51060;42.640;24.356;2023-02-12T07:05:19;18.00;;;10.13;;
32824;SDS011;51060;42.640;24.356;2023-02-12T07:07:44;20.03;;;12.97;;
32824;SDS011;51060;42.640;24.356;2023-02-12T07:10:10;21.60;;;15.10;;
32824;SDS011;51060;42.640;24.356;2023-02-12T07:12:35;19.80;;;12.30;;
32824;SDS011;51060;42.640;24.356;2023-02-12T07:15:01;17.83;;;11.07;;
32824;SDS011;51060;42.640;24.356;2023-02-12T07:17:28;19.47;;;10.40;;
32824;SDS011;51060;42.640;24.356;2023-02-12T07:19:54;17.13;;;10.33;;
32824;SDS011;51060;42.640;24.356;2023-02-12T07:22:20;19.27;;;11.23;;
32824;SDS011;51060;42.640;24.356;2023-02-12T07:24:46;13.77;;;8.27;;
32824;SDS011;51060;42.640;24.356;2023-02-12T07:27:12;11.77;;;8.40;;
32824;SDS011;51060;42.640;24.356;2023-02-12T07:29:38;15.97;;;10.67;;
32824;SDS011;51060;42.640;24.356;2023-02-12T07:32:04;15.87;;;11.07;;
32824;SDS011;51060;42.640;24.356;2023-02-12T07:34:30;14.53;;;9.93;;
32824;SDS011;51060;42.640;24.356;2023-02-12T07:36:55;14.70;;;10.27;;
32824;SDS011;51060;42.640;24.356;2023-02-12T07:39:21;24.43;;;14.63;;
32824;SDS011;51060;42.640;24.356;2023-02-12T07:41:47;19.20;;;12.73;;
32824;SDS011;51060;42.640;24.356;2023-02-12T07:44:12;13.47;;;9.07;;
32824;SDS011;51060;42.640;24.356;2023-02-12T07:46:39;16.17;;;9.10;;
32824;SDS011;51060;42.640;24.356;2023-02-12T07:49:14;14.97;;;9.03;;
32824;SDS011;51060;42.640;24.356;2023-02-12T07:51:41;15.13;;;10.13;;
32824;SDS011;51060;42.640;24.356;2023-02-12T07:54:07;18.23;;;10.57;;
32824;SDS011;51060;42.640;24.356;2023-02-12T07:56:34;15.93;;;10.30;;
32824;SDS011;51060;42.640;24.356;2023-02-12T07:59:05;31.73;;;19.13;;
32824;SDS011;51060;42.640;24.356;2023-02-12T08:01:36;23.23;;;14.47;;
32824;SDS011;51060;42.640;24.356;2023-02-12T08:04:05;18.97;;;12.53;;
32824;SDS011;51060;42.640;24.356;2023-02-12T08:06:33;20.33;;;13.27;;
32824;SDS011;51060;42.640;24.356;2023-02-12T08:09:01;17.30;;;10.70;;
32824;SDS011;51060;42.640;24.356;2023-02-12T08:11:28;14.30;;;9.23;;
32824;SDS011;51060;42.640;24.356;2023-02-12T08:13:55;25.50;;;14.87;;
32824;SDS011;51060;42.640;24.356;2023-02-12T08:16:22;20.10;;;11.93;;
32824;SDS011;51060;42.640;24.356;2023-02-12T08:18:48;21.03;;;14.13;;
32824;SDS011;51060;42.640;24.356;2023-02-12T08:21:15;24.47;;;15.87;;
32824;SDS011;51060;42.640;24.356;2023-02-12T08:23:43;18.67;;;12.03;;
32824;SDS011;51060;42.640;24.356;2023-02-12T08:26:12;16.83;;;11.60;;
32824;SDS011;51060;42.640;24.356;2023-02-12T08:28:41;23.00;;;13.77;;
32824;SDS011;51060;42.640;24.356;2023-02-12T08:31:14;22.00;;;14.43;;
32824;SDS011;51060;42.640;24.356;2023-02-12T08:33:43;20.77;;;13.23;;
32824;SDS011;51060;42.640;24.356;2023-02-12T08:36:10;18.63;;;12.73;;
32824;SDS011;51060;42.640;24.356;2023-02-12T08:38:38;20.30;;;13.63;;
32824;SDS011;51060;42.640;24.356;2023-02-12T08:41:05;30.60;;;20.57;;
32824;SDS011;51060;42.640;24.356;2023-02-12T08:43:35;25.03;;;16.37;;
32824;SDS011;51060;42.640;24.356;2023-02-12T08:46:22;21.70;;;14.30;;
32824;SDS011;51060;42.640;24.356;2023-02-12T08:48:50;20.97;;;13.30;;
32824;SDS011;51060;42.640;24.356;2023-02-12T08:51:21;16.13;;;10.23;;
32824;SDS011;51060;42.640;24.356;2023-02-12T08:53:50;20.53;;;13.63;;
32824;SDS011;51060;42.640;24.356;2023-02-12T08:56:17;23.93;;;15.63;;
32824;SDS011;51060;42.640;24.356;2023-02-12T08:58:43;21.40;;;13.67;;
32824;SDS011;51060;42.640;24.356;2023-02-12T09:01:12;17.97;;;11.07;;
32824;SDS011;51060;42.640;24.356;2023-02-12T09:03:44;18.40;;;13.13;;
32824;SDS011;51060;42.640;24.356;2023-02-12T09:06:10;15.77;;;11.30;;
32824;SDS011;51060;42.640;24.356;2023-02-12T09:08:36;16.77;;;12.03;;
32824;SDS011;51060;42.640;24.356;2023-02-12T09:11:09;15.70;;;11.13;;
32824;SDS011;51060;42.640;24.356;2023-02-12T09:13:40;22.50;;;15.63;;
32824;SDS011;51060;42.640;24.356;2023-02-12T09:16:07;22.70;;;15.70;;
32824;SDS011;51060;42.640;24.356;2023-02-12T09:18:32;17.93;;;12.17;;
32824;SDS011;51060;42.640;24.356;2023-02-12T09:21:05;22.77;;;14.53;;
32824;SDS011;51060;42.640;24.356;2023-02-12T09:23:35;18.43;;;12.40;;
32824;SDS011;51060;42.640;24.356;2023-02-12T09:26:04;29.13;;;18.50;;
32824;SDS011;51060;42.640;24.356;2023-02-12T09:28:31;16.73;;;11.83;;
32824;SDS011;51060;42.640;24.356;2023-02-12T09:30:56;24.27;;;16.30;;
32824;SDS011;51060;42.640;24.356;2023-02-12T09:33:22;18.90;;;12.83;;
32824;SDS011;51060;42.640;24.356;2023-02-12T09:35:48;20.33;;;12.93;;
32824;SDS011;51060;42.640;24.356;2023-02-12T09:38:14;21.97;;;14.37;;
32824;SDS011;51060;42.640;24.356;2023-02-12T09:43:36;20.67;;;13.60;;
32824;SDS011;51060;42.640;24.356;2023-02-12T09:48:55;21.53;;;14.23;;
32824;SDS011;51060;42.640;24.356;2023-02-12T09:51:35;25.10;;;13.70;;
32824;SDS011;51060;42.640;24.356;2023-02-12T09:54:04;17.97;;;12.53;;
32824;SDS011;51060;42.640;24.356;2023-02-12T09:56:33;20.70;;;13.37;;
32824;SDS011;51060;42.640;24.356;2023-02-12T09:59:00;18.87;;;12.13;;
32824;SDS011;51060;42.640;24.356;2023-02-12T10:01:30;17.93;;;11.90;;
32824;SDS011;51060;42.640;24.356;2023-02-12T10:03:56;18.93;;;13.07;;
32824;SDS011;51060;42.640;24.356;2023-02-12T10:06:26;18.40;;;13.07;;
32824;SDS011;51060;42.640;24.356;2023-02-12T10:11:52;18.50;;;11.87;;
32824;SDS011;51060;42.640;24.356;2023-02-12T10:14:28;20.90;;;14.30;;
32824;SDS011;51060;42.640;24.356;2023-02-12T10:25:53;18.80;;;13.00;;
32824;SDS011;51060;42.640;24.356;2023-02-12T10:28:33;23.17;;;14.87;;
32824;SDS011;51060;42.640;24.356;2023-02-12T10:31:03;20.80;;;13.40;;
32824;SDS011;51060;42.640;24.356;2023-02-12T10:33:51;16.70;;;12.43;;
32824;SDS011;51060;42.640;24.356;2023-02-12T10:41:38;19.83;;;14.00;;
32824;SDS011;51060;42.640;24.356;2023-02-12T10:44:10;20.63;;;15.73;;
32824;SDS011;51060;42.640;24.356;2023-02-12T10:46:37;24.10;;;14.87;;
32824;SDS011;51060;42.640;24.356;2023-02-12T10:49:02;18.73;;;13.27;;
32824;SDS011;51060;42.640;24.356;2023-02-12T10:51:35;18.80;;;14.03;;
32824;SDS011;51060;42.640;24.356;2023-02-12T10:57:03;18.63;;;13.87;;
32824;SDS011;51060;42.640;24.356;2023-02-12T10:59:33;16.23;;;12.47;;
32824;SDS011;51060;42.640;24.356;2023-02-12T11:01:58;20.00;;;14.10;;
32824;SDS011;51060;42.640;24.356;2023-02-12T11:04:28;16.77;;;11.40;;
32824;SDS011;51060;42.640;24.356;2023-02-12T11:07:00;14.10;;;9.73;;
32824;SDS011;51060;42.640;24.356;2023-02-12T11:09:29;16.23;;;11.13;;
32824;SDS011;51060;42.640;24.356;2023-02-12T11:11:59;12.57;;;8.97;;
32824;SDS011;51060;42.640;24.356;2023-02-12T11:14:24;13.20;;;10.53;;
32824;SDS011;51060;42.640;24.356;2023-02-12T11:16:52;19.13;;;14.70;;
32824;SDS011;51060;42.640;24.356;2023-02-12T11:19:20;14.97;;;10.37;;
32824;SDS011;51060;42.640;24.356;2023-02-12T11:21:50;14.33;;;10.97;;
32824;SDS011;51060;42.640;24.356;2023-02-12T11:24:20;14.50;;;9.53;;
32824;SDS011;51060;42.640;24.356;2023-02-12T11:29:39;15.17;;;10.17;;
32824;SDS011;51060;42.640;24.356;2023-02-12T11:32:08;9.57;;;7.30;;
32824;SDS011;51060;42.640;24.356;2023-02-12T11:34:40;10.43;;;7.80;;
32824;SDS011;51060;42.640;24.356;2023-02-12T11:37:11;11.80;;;8.90;;
32824;SDS011;51060;42.640;24.356;2023-02-12T11:39:40;12.00;;;9.00;;
32824;SDS011;51060;42.640;24.356;2023-02-12T11:42:15;15.77;;;11.03;;
32824;SDS011;51060;42.640;24.356;2023-02-12T11:44:43;12.07;;;9.07;;
32824;SDS011;51060;42.640;24.356;2023-02-12T11:47:17;10.63;;;8.17;;
32824;SDS011;51060;42.640;24.356;2023-02-12T11:52:21;10.40;;;8.03;;
32824;SDS011;51060;42.640;24.356;2023-02-12T11:54:49;11.63;;;7.67;;
32824;SDS011;51060;42.640;24.356;2023-02-12T12:00:04;11.30;;;8.13;;
32824;SDS011;51060;42.640;24.356;2023-02-12T12:05:34;8.43;;;7.27;;
32824;SDS011;51060;42.640;24.356;2023-02-12T12:08:02;9.73;;;6.90;;
32824;SDS011;51060;42.640;24.356;2023-02-12T12:13:15;10.97;;;7.97;;
32824;SDS011;51060;42.640;24.356;2023-02-12T12:15:47;9.63;;;8.00;;
32824;SDS011;51060;42.640;24.356;2023-02-12T12:23:54;8.30;;;6.50;;
32824;SDS011;51060;42.640;24.356;2023-02-12T12:26:29;10.13;;;6.67;;
32824;SDS011;51060;42.640;24.356;2023-02-12T12:31:26;7.57;;;6.20;;
32824;SDS011;51060;42.640;24.356;2023-02-12T12:34:01;9.90;;;6.97;;
32824;SDS011;51060;42.640;24.356;2023-02-12T12:39:15;10.97;;;8.47;;
32824;SDS011;51060;42.640;24.356;2023-02-12T12:41:49;12.37;;;9.07;;
32824;SDS011;51060;42.640;24.356;2023-02-12T12:45:22;7.47;;;5.50;;
32824;SDS011;51060;42.640;24.356;2023-02-12T12:58:18;13.87;;;9.20;;
32824;SDS011;51060;42.640;24.356;2023-02-12T13:04:12;16.57;;;12.37;;
32824;SDS011;51060;42.640;24.356;2023-02-12T13:07:24;11.60;;;8.80;;
32824;SDS011;51060;42.640;24.356;2023-02-12T13:13:34;12.17;;;10.67;;
32824;SDS011;51060;42.640;24.356;2023-02-12T13:19:10;12.70;;;9.50;;
32824;SDS011;51060;42.640;24.356;2023-02-12T13:21:43;12.70;;;11.40;;
32824;SDS011;51060;42.640;24.356;2023-02-12T13:26:51;9.67;;;7.77;;
32824;SDS011;51060;42.640;24.356;2023-02-12T13:29:20;16.40;;;11.43;;
32824;SDS011;51060;42.640;24.356;2023-02-12T13:31:57;13.93;;;10.37;;
32824;SDS011;51060;42.640;24.356;2023-02-12T13:34:26;11.70;;;9.43;;
32824;SDS011;51060;42.640;24.356;2023-02-12T13:36:53;13.10;;;9.67;;
32824;SDS011;51060;42.640;24.356;2023-02-12T13:44:31;14.83;;;11.70;;
32824;SDS011;51060;42.640;24.356;2023-02-12T14:01:08;13.07;;;10.03;;
32824;SDS011;51060;42.640;24.356;2023-02-12T14:03:35;12.03;;;9.47;;
32824;SDS011;51060;42.640;24.356;2023-02-12T14:06:12;14.23;;;10.97;;
32824;SDS011;51060;42.640;24.356;2023-02-12T14:08:41;13.23;;;9.90;;
32824;SDS011;51060;42.640;24.356;2023-02-12T14:11:09;12.90;;;10.27;;
32824;SDS011;51060;42.640;24.356;2023-02-12T14:13:44;22.10;;;16.03;;
32824;SDS011;51060;42.640;24.356;2023-02-12T14:16:34;23.07;;;18.00;;
32824;SDS011;51060;42.640;24.356;2023-02-12T14:24:51;24.47;;;16.40;;
32824;SDS011;51060;42.640;24.356;2023-02-12T14:37:51;23.63;;;18.13;;
32824;SDS011;51060;42.640;24.356;2023-02-12T14:40:29;17.50;;;12.43;;
32824;SDS011;51060;42.640;24.356;2023-02-12T14:42:57;13.07;;;10.63;;
32824;SDS011;51060;42.640;24.356;2023-02-12T14:45:33;13.70;;;10.83;;
32824;SDS011;51060;42.640;24.356;2023-02-12T14:48:00;13.07;;;10.23;;
32824;SDS011;51060;42.640;24.356;2023-02-12T14:50:28;13.33;;;9.70;;
32824;SDS011;51060;42.640;24.356;2023-02-12T14:53:16;13.33;;;10.20;;
32824;SDS011;51060;42.640;24.356;2023-02-12T14:55:44;13.37;;;10.63;;
32824;SDS011;51060;42.640;24.356;2023-02-12T14:58:29;14.40;;;11.23;;
32824;SDS011;51060;42.640;24.356;2023-02-12T15:00:56;22.90;;;15.17;;
32824;SDS011;51060;42.640;24.356;2023-02-12T15:03:24;18.17;;;12.07;;
32824;SDS011;51060;42.640;24.356;2023-02-12T15:08:33;20.50;;;14.43;;
32824;SDS011;51060;42.640;24.356;2023-02-12T15:13:54;16.27;;;11.90;;
32824;SDS011;51060;42.640;24.356;2023-02-12T15:22:01;19.27;;;13.60;;
32824;SDS011;51060;42.640;24.356;2023-02-12T15:24:27;20.10;;;14.10;;
32824;SDS011;51060;42.640;24.356;2023-02-12T15:26:53;17.13;;;13.13;;
32824;SDS011;51060;42.640;24.356;2023-02-12T15:29:23;17.57;;;13.07;;
32824;SDS011;51060;42.640;24.356;2023-02-12T15:31:54;17.43;;;13.30;;
32824;SDS011;51060;42.640;24.356;2023-02-12T15:34:28;20.27;;;14.23;;
32824;SDS011;51060;42.640;24.356;2023-02-12T15:36:56;37.53;;;23.13;;
32824;SDS011;51060;42.640;24.356;2023-02-12T15:39:23;46.77;;;30.90;;
32824;SDS011;51060;42.640;24.356;2023-02-12T15:41:49;55.13;;;33.30;;
32824;SDS011;51060;42.640;24.356;2023-02-12T15:44:18;41.80;;;24.77;;
32824;SDS011;51060;42.640;24.356;2023-02-12T15:47:19;27.73;;;18.57;;
32824;SDS011;51060;42.640;24.356;2023-02-12T15:49:40;28.70;;;19.23;;
32824;SDS011;51060;42.640;24.356;2023-02-12T15:52:13;32.63;;;23.40;;
32824;SDS011;51060;42.640;24.356;2023-02-12T15:54:42;41.87;;;27.07;;
32824;SDS011;51060;42.640;24.356;2023-02-12T15:57:12;43.53;;;31.20;;
32824;SDS011;51060;42.640;24.356;2023-02-12T15:59:42;33.27;;;23.63;;
32824;SDS011;51060;42.640;24.356;2023-02-12T16:02:22;36.43;;;25.23;;
32824;SDS011;51060;42.640;24.356;2023-02-12T16:04:55;25.70;;;17.50;;
32824;SDS011;51060;42.640;24.356;2023-02-12T16:07:21;19.33;;;14.33;;
32824;SDS011;51060;42.640;24.356;2023-02-12T16:09:47;21.90;;;15.77;;
32824;SDS011;51060;42.640;24.356;2023-02-12T16:12:16;24.87;;;16.93;;
32824;SDS011;51060;42.640;24.356;2023-02-12T16:14:47;24.03;;;16.37;;
32824;SDS011;51060;42.640;24.356;2023-02-12T16:17:18;24.80;;;16.80;;
32824;SDS011;51060;42.640;24.356;2023-02-12T16:22:18;22.07;;;15.60;;
32824;SDS011;51060;42.640;24.356;2023-02-12T16:24:50;22.83;;;15.23;;
32824;SDS011;51060;42.640;24.356;2023-02-12T16:27:20;22.47;;;15.00;;
32824;SDS011;51060;42.640;24.356;2023-02-12T16:29:52;24.07;;;16.90;;
32824;SDS011;51060;42.640;24.356;2023-02-12T16:32:26;21.83;;;15.47;;
32824;SDS011;51060;42.640;24.356;2023-02-12T16:34:59;26.07;;;18.00;;
32824;SDS011;51060;42.640;24.356;2023-02-12T16:42:48;19.80;;;15.57;;
32824;SDS011;51060;42.640;24.356;2023-02-12T16:47:50;35.17;;;22.37;;
32824;SDS011;51060;42.640;24.356;2023-02-12T16:50:16;33.40;;;21.63;;
32824;SDS011;51060;42.640;24.356;2023-02-12T16:52:42;42.83;;;26.43;;
32824;SDS011;51060;42.640;24.356;2023-02-12T16:55:13;29.67;;;20.30;;
32824;SDS011;51060;42.640;24.356;2023-02-12T16:57:40;35.43;;;25.67;;
32824;SDS011;51060;42.640;24.356;2023-02-12T17:00:06;35.60;;;25.20;;
32824;SDS011;51060;42.640;24.356;2023-02-12T17:02:33;29.30;;;20.40;;
32824;SDS011;51060;42.640;24.356;2023-02-12T17:05:03;42.57;;;29.07;;
32824;SDS011;51060;42.640;24.356;2023-02-12T17:07:32;26.57;;;19.13;;
32824;SDS011;51060;42.640;24.356;2023-02-12T17:09:58;23.80;;;16.70;;
32824;SDS011;51060;42.640;24.356;2023-02-12T17:12:24;32.13;;;22.37;;
32824;SDS011;51060;42.640;24.356;2023-02-12T17:14:50;50.07;;;30.40;;
32824;SDS011;51060;42.640;24.356;2023-02-12T17:17:16;170.83;;;83.33;;
32824;SDS011;51060;42.640;24.356;2023-02-12T17:19:42;100.97;;;59.00;;
32824;SDS011;51060;42.640;24.356;2023-02-12T17:22:14;44.93;;;28.40;;
32824;SDS011;51060;42.640;24.356;2023-02-12T17:24:44;60.47;;;39.93;;
32824;SDS011;51060;42.640;24.356;2023-02-12T17:27:16;105.23;;;63.73;;
32824;SDS011;51060;42.640;24.356;2023-02-12T17:29:42;56.20;;;38.67;;
32824;SDS011;51060;42.640;24.356;2023-02-12T17:32:07;54.80;;;33.17;;
32824;SDS011;51060;42.640;24.356;2023-02-12T17:34:33;36.67;;;23.07;;